sensor_id;sensor_type;location;lat;lon;timestamp;P1;durP1;ratioP1;P2;durP2;ratioP2
14358;SDS011;7263;49.418;11.064;2023-05-07T00:00:06;6.47;;;5.77;;
14358;SDS011;7263;49.418;11.064;2023-05-07T00:02:36;15.53;;;13.80;;
14358;SDS011;7263;49.418;11.064;2023-05-07T00:05:03;9.20;;;8.17;;
14358;SDS011;7263;49.418;11.064;2023-05-07T00:07:38;5.00;;;4.03;;
14358;SDS011;7263;49.418;11.064;2023-05-07T00:10:09;3.90;;;3.50;;
14358;SDS011;7263;49.418;11.064;2023-05-07T00:12:37;3.93;;;3.53;;
14358;SDS011;7263;49.418;11.064;2023-05-07T00:15:08;4.37;;;3.97;;
14358;SDS011;7263;49.418;11.064;2023-05-07T00:17:35;4.27;;;3.53;;
14358;SDS011;7263;49.418;11.064;2023-05-07T00:20:06;6.83;;;4.90;;
14358;SDS011;7263;49.418;11.064;2023-05-07T00:22:46;6.97;;;3.77;;
14358;SDS011;7263;49.418;11.064;2023-05-07T00:25:16;4.93;;;4.47;;
14358;SDS011;7263;49.418;11.064;2023-05-07T00:27:45;13.70;;;12.40;;
14358;SDS011;7263;49.418;11.064;2023-05-07T00:30:16;31.13;;;27.07;;
14358;SDS011;7263;49.418;11.064;2023-05-07T00:32:46;11.13;;;9.93;;
14358;SDS011;7263;49.418;11.064;2023-05-07T00:35:14;6.57;;;4.17;;
14358;SDS011;7263;49.418;11.064;2023-05-07T00:37:40;4.70;;;4.20;;
14358;SDS011;7263;49.418;11.064;2023-05-07T00:40:09;4.47;;;3.40;;
14358;SDS011;7263;49.418;11.064;2023-05-07T00:42:36;4.67;;;3.60;;
14358;SDS011;7263;49.418;11.064;2023-05-07T00:45:06;3.97;;;3.53;;
14358;SDS011;7263;49.418;11.064;2023-05-07T00:47:37;4.67;;;3.70;;
14358;SDS011;7263;49.418;11.064;2023-05-07T00:50:13;4.13;;;3.73;;
14358;SDS011;7263;49.418;11.064;2023-05-07T00:52:46;8.67;;;6.13;;
14358;SDS011;7263;49.418;11.064;2023-05-07T00:55:20;6.80;;;5.07;;
14358;SDS011;7263;49.418;11.064;2023-05-07T00:57:47;8.63;;;6.20;;
14358;SDS011;7263;49.418;11.064;2023-05-07T01:00:16;4.40;;;4.00;;
14358;SDS011;7263;49.418;11.064;2023-05-07T01:02:45;4.90;;;3.73;;
14358;SDS011;7263;49.418;11.064;2023-05-07T01:05:15;5.50;;;4.00;;
14358;SDS011;7263;49.418;11.064;2023-05-07T01:07:45;3.97;;;3.57;;
14358;SDS011;7263;49.418;11.064;2023-05-07T01:10:19;4.30;;;3.30;;
14358;SDS011;7263;49.418;11.064;2023-05-07T01:12:49;4.83;;;3.70;;
14358;SDS011;7263;49.418;11.064;2023-05-07T01:15:20;3.67;;;3.27;;
14358;SDS011;7263;49.418;11.064;2023-05-07T01:17:53;3.77;;;3.40;;
14358;SDS011;7263;49.418;11.064;2023-05-07T01:20:26;3.67;;;3.23;;
14358;SDS011;7263;49.418;11.064;2023-05-07T01:22:59;4.37;;;3.23;;
14358;SDS011;7263;49.418;11.064;2023-05-07T01:25:29;3.70;;;3.40;;
14358;SDS011;7263;49.418;11.064;2023-05-07T01:27:58;4.87;;;3.40;;
14358;SDS011;7263;49.418;11.064;2023-05-07T01:30:27;4.67;;;3.40;;
14358;SDS011;7263;49.418;11.064;2023-05-07T01:32:59;4.20;;;3.30;;
14358;SDS011;7263;49.418;11.064;2023-05-07T01:35:32;3.83;;;3.03;;
14358;SDS011;7263;49.418;11.064;2023-05-07T01:38:11;4.60;;;3.33;;
14358;SDS011;7263;49.418;11.064;2023-05-07T01:40:38;3.83;;;3.50;;
14358;SDS011;7263;49.418;11.064;2023-05-07T01:43:08;3.77;;;3.40;;
14358;SDS011;7263;49.418;11.064;2023-05-07T01:45:36;5.30;;;3.47;;
14358;SDS011;7263;49.418;11.064;2023-05-07T01:48:06;3.90;;;3.50;;
14358;SDS011;7263;49.418;11.064;2023-05-07T01:50:34;4.37;;;2.87;;
14358;SDS011;7263;49.418;11.064;2023-05-07T01:53:06;4.13;;;3.73;;
14358;SDS011;7263;49.418;11.064;2023-05-07T01:55:39;3.73;;;3.10;;
14358;SDS011;7263;49.418;11.064;2023-05-07T01:58:06;4.10;;;3.20;;
14358;SDS011;7263;49.418;11.064;2023-05-07T02:00:33;3.70;;;3.13;;
14358;SDS011;7263;49.418;11.064;2023-05-07T02:03:06;4.70;;;3.50;;
14358;SDS011;7263;49.418;11.064;2023-05-07T02:05:35;4.00;;;3.60;;
14358;SDS011;7263;49.418;11.064;2023-05-07T02:08:08;3.87;;;3.40;;
14358;SDS011;7263;49.418;11.064;2023-05-07T02:10:38;4.53;;;3.57;;
14358;SDS011;7263;49.418;11.064;2023-05-07T02:13:08;4.80;;;3.50;;
14358;SDS011;7263;49.418;11.064;2023-05-07T02:15:35;3.87;;;3.47;;
14358;SDS011;7263;49.418;11.064;2023-05-07T02:18:05;3.60;;;3.30;;
14358;SDS011;7263;49.418;11.064;2023-05-07T02:20:32;5.07;;;3.07;;
14358;SDS011;7263;49.418;11.064;2023-05-07T02:23:04;3.80;;;3.50;;
14358;SDS011;7263;49.418;11.064;2023-05-07T02:25:34;7.33;;;3.57;;
14358;SDS011;7263;49.418;11.064;2023-05-07T02:28:05;3.70;;;3.37;;
14358;SDS011;7263;49.418;11.064;2023-05-07T02:30:32;3.60;;;3.30;;
14358;SDS011;7263;49.418;11.064;2023-05-07T02:33:01;4.67;;;3.80;;
14358;SDS011;7263;49.418;11.064;2023-05-07T02:35:28;3.80;;;3.13;;
14358;SDS011;7263;49.418;11.064;2023-05-07T02:37:56;3.63;;;3.00;;
14358;SDS011;7263;49.418;11.064;2023-05-07T02:40:24;4.77;;;3.10;;
14358;SDS011;7263;49.418;11.064;2023-05-07T02:42:53;4.00;;;3.13;;
14358;SDS011;7263;49.418;11.064;2023-05-07T02:45:32;4.00;;;3.23;;
14358;SDS011;7263;49.418;11.064;2023-05-07T02:48:08;4.17;;;3.50;;
14358;SDS011;7263;49.418;11.064;2023-05-07T02:50:35;3.20;;;2.90;;
14358;SDS011;7263;49.418;11.064;2023-05-07T02:53:02;10.33;;;8.60;;
14358;SDS011;7263;49.418;11.064;2023-05-07T02:55:29;4.20;;;3.80;;
14358;SDS011;7263;49.418;11.064;2023-05-07T02:57:57;4.00;;;3.60;;
14358;SDS011;7263;49.418;11.064;2023-05-07T03:00:31;4.00;;;3.70;;
14358;SDS011;7263;49.418;11.064;2023-05-07T03:02:58;4.53;;;3.40;;
14358;SDS011;7263;49.418;11.064;2023-05-07T03:05:26;6.10;;;3.07;;
14358;SDS011;7263;49.418;11.064;2023-05-07T03:07:54;4.27;;;3.70;;
14358;SDS011;7263;49.418;11.064;2023-05-07T03:10:23;5.07;;;3.70;;
14358;SDS011;7263;49.418;11.064;2023-05-07T03:12:52;4.50;;;3.33;;
14358;SDS011;7263;49.418;11.064;2023-05-07T03:15:19;3.83;;;3.43;;
14358;SDS011;7263;49.418;11.064;2023-05-07T03:17:50;4.83;;;3.40;;
14358;SDS011;7263;49.418;11.064;2023-05-07T03:20:20;3.87;;;3.57;;
14358;SDS011;7263;49.418;11.064;2023-05-07T03:22:50;3.93;;;3.53;;
14358;SDS011;7263;49.418;11.064;2023-05-07T03:25:16;4.07;;;3.57;;
14358;SDS011;7263;49.418;11.064;2023-05-07T03:27:46;4.30;;;3.40;;
14358;SDS011;7263;49.418;11.064;2023-05-07T03:30:14;4.00;;;3.60;;
14358;SDS011;7263;49.418;11.064;2023-05-07T03:32:43;4.73;;;3.60;;
14358;SDS011;7263;49.418;11.064;2023-05-07T03:35:12;5.80;;;3.60;;
14358;SDS011;7263;49.418;11.064;2023-05-07T03:37:38;3.83;;;3.50;;
14358;SDS011;7263;49.418;11.064;2023-05-07T03:40:08;4.47;;;3.30;;
14358;SDS011;7263;49.418;11.064;2023-05-07T03:42:37;5.37;;;3.63;;
14358;SDS011;7263;49.418;11.064;2023-05-07T03:45:06;3.97;;;3.53;;
14358;SDS011;7263;49.418;11.064;2023-05-07T03:47:34;7.03;;;3.47;;
14358;SDS011;7263;49.418;11.064;2023-05-07T03:50:11;4.97;;;3.47;;
14358;SDS011;7263;49.418;11.064;2023-05-07T03:52:41;3.63;;;3.33;;
14358;SDS011;7263;49.418;11.064;2023-05-07T03:55:08;3.60;;;3.30;;
14358;SDS011;7263;49.418;11.064;2023-05-07T03:57:35;6.80;;;3.97;;
14358;SDS011;7263;49.418;11.064;2023-05-07T04:00:09;3.70;;;3.40;;
14358;SDS011;7263;49.418;11.064;2023-05-07T04:02:39;3.97;;;3.60;;
14358;SDS011;7263;49.418;11.064;2023-05-07T04:07:40;3.50;;;3.20;;
14358;SDS011;7263;49.418;11.064;2023-05-07T04:10:10;3.97;;;3.57;;
14358;SDS011;7263;49.418;11.064;2023-05-07T04:12:38;3.90;;;3.50;;
14358;SDS011;7263;49.418;11.064;2023-05-07T04:15:06;3.93;;;3.63;;
14358;SDS011;7263;49.418;11.064;2023-05-07T04:17:39;4.43;;;3.60;;
14358;SDS011;7263;49.418;11.064;2023-05-07T04:20:08;4.87;;;3.60;;
14358;SDS011;7263;49.418;11.064;2023-05-07T04:22:37;3.80;;;3.40;;
14358;SDS011;7263;49.418;11.064;2023-05-07T04:25:15;3.80;;;3.47;;
14358;SDS011;7263;49.418;11.064;2023-05-07T04:27:42;4.03;;;3.40;;
14358;SDS011;7263;49.418;11.064;2023-05-07T04:30:09;5.43;;;3.60;;
14358;SDS011;7263;49.418;11.064;2023-05-07T04:32:39;6.03;;;3.53;;
14358;SDS011;7263;49.418;11.064;2023-05-07T04:35:10;3.80;;;3.40;;
14358;SDS011;7263;49.418;11.064;2023-05-07T04:37:46;3.97;;;3.30;;
14358;SDS011;7263;49.418;11.064;2023-05-07T04:40:15;4.00;;;3.33;;
14358;SDS011;7263;49.418;11.064;2023-05-07T04:42:45;6.40;;;3.70;;
14358;SDS011;7263;49.418;11.064;2023-05-07T04:45:32;3.80;;;3.50;;
14358;SDS011;7263;49.418;11.064;2023-05-07T04:47:58;7.80;;;4.20;;
14358;SDS011;7263;49.418;11.064;2023-05-07T04:50:28;4.57;;;4.17;;
14358;SDS011;7263;49.418;11.064;2023-05-07T04:52:56;4.10;;;3.77;;
14358;SDS011;7263;49.418;11.064;2023-05-07T04:55:29;4.60;;;4.20;;
14358;SDS011;7263;49.418;11.064;2023-05-07T04:58:02;4.50;;;4.10;;
14358;SDS011;7263;49.418;11.064;2023-05-07T05:00:35;4.90;;;4.40;;
14358;SDS011;7263;49.418;11.064;2023-05-07T05:03:05;4.60;;;3.93;;
14358;SDS011;7263;49.418;11.064;2023-05-07T05:05:32;5.20;;;4.70;;
14358;SDS011;7263;49.418;11.064;2023-05-07T05:08:06;4.70;;;4.30;;
14358;SDS011;7263;49.418;11.064;2023-05-07T05:10:35;6.07;;;4.73;;
14358;SDS011;7263;49.418;11.064;2023-05-07T05:13:12;5.70;;;4.70;;
14358;SDS011;7263;49.418;11.064;2023-05-07T05:15:43;5.20;;;4.60;;
14358;SDS011;7263;49.418;11.064;2023-05-07T05:18:10;6.00;;;5.40;;
14358;SDS011;7263;49.418;11.064;2023-05-07T05:20:39;5.40;;;5.00;;
14358;SDS011;7263;49.418;11.064;2023-05-07T05:23:12;7.13;;;5.10;;
14358;SDS011;7263;49.418;11.064;2023-05-07T05:25:39;5.43;;;5.03;;
14358;SDS011;7263;49.418;11.064;2023-05-07T05:28:11;5.83;;;4.97;;
14358;SDS011;7263;49.418;11.064;2023-05-07T05:30:38;5.20;;;4.70;;
14358;SDS011;7263;49.418;11.064;2023-05-07T05:33:08;5.60;;;5.00;;
14358;SDS011;7263;49.418;11.064;2023-05-07T05:35:35;5.50;;;5.00;;
14358;SDS011;7263;49.418;11.064;2023-05-07T05:38:04;5.67;;;4.90;;
14358;SDS011;7263;49.418;11.064;2023-05-07T05:40:40;6.30;;;5.27;;
14358;SDS011;7263;49.418;11.064;2023-05-07T05:43:07;5.23;;;4.83;;
14358;SDS011;7263;49.418;11.064;2023-05-07T05:45:40;6.03;;;5.47;;
14358;SDS011;7263;49.418;11.064;2023-05-07T05:48:09;6.17;;;5.27;;
14358;SDS011;7263;49.418;11.064;2023-05-07T05:50:38;5.80;;;5.20;;
14358;SDS011;7263;49.418;11.064;2023-05-07T05:53:08;5.60;;;5.10;;
14358;SDS011;7263;49.418;11.064;2023-05-07T05:55:37;6.83;;;5.53;;
14358;SDS011;7263;49.418;11.064;2023-05-07T05:58:08;5.30;;;4.90;;
14358;SDS011;7263;49.418;11.064;2023-05-07T06:00:40;5.67;;;5.07;;
14358;SDS011;7263;49.418;11.064;2023-05-07T06:03:07;5.90;;;5.40;;
14358;SDS011;7263;49.418;11.064;2023-05-07T06:05:33;5.73;;;5.03;;
14358;SDS011;7263;49.418;11.064;2023-05-07T06:08:00;5.43;;;4.93;;
14358;SDS011;7263;49.418;11.064;2023-05-07T06:10:30;6.33;;;5.23;;
14358;SDS011;7263;49.418;11.064;2023-05-07T06:13:00;5.07;;;4.67;;
14358;SDS011;7263;49.418;11.064;2023-05-07T06:15:29;5.93;;;5.33;;
14358;SDS011;7263;49.418;11.064;2023-05-07T06:17:56;5.63;;;5.07;;
14358;SDS011;7263;49.418;11.064;2023-05-07T06:20:23;6.00;;;5.40;;
14358;SDS011;7263;49.418;11.064;2023-05-07T06:22:50;5.70;;;5.20;;
14358;SDS011;7263;49.418;11.064;2023-05-07T06:25:17;5.23;;;4.73;;
14358;SDS011;7263;49.418;11.064;2023-05-07T06:27:43;6.60;;;5.27;;
14358;SDS011;7263;49.418;11.064;2023-05-07T06:30:14;5.13;;;4.37;;
14358;SDS011;7263;49.418;11.064;2023-05-07T06:32:49;5.40;;;4.90;;
14358;SDS011;7263;49.418;11.064;2023-05-07T06:35:21;4.83;;;4.43;;
14358;SDS011;7263;49.418;11.064;2023-05-07T06:37:51;5.78;;;4.50;;
14358;SDS011;7263;49.418;11.064;2023-05-07T06:40:20;4.90;;;4.50;;
14358;SDS011;7263;49.418;11.064;2023-05-07T06:42:47;5.67;;;4.70;;
14358;SDS011;7263;49.418;11.064;2023-05-07T06:45:21;5.15;;;4.65;;
14358;SDS011;7263;49.418;11.064;2023-05-07T06:48:00;5.15;;;4.65;;
14358;SDS011;7263;49.418;11.064;2023-05-07T06:50:27;7.37;;;5.03;;
14358;SDS011;7263;49.418;11.064;2023-05-07T06:52:56;4.80;;;4.40;;
14358;SDS011;7263;49.418;11.064;2023-05-07T06:55:23;5.03;;;4.63;;
14358;SDS011;7263;49.418;11.064;2023-05-07T06:57:50;5.82;;;4.68;;
14358;SDS011;7263;49.418;11.064;2023-05-07T07:00:17;5.38;;;4.88;;
14358;SDS011;7263;49.418;11.064;2023-05-07T07:02:49;5.03;;;4.53;;
14358;SDS011;7263;49.418;11.064;2023-05-07T07:05:16;4.97;;;4.30;;
14358;SDS011;7263;49.418;11.064;2023-05-07T07:07:45;4.85;;;4.43;;
14358;SDS011;7263;49.418;11.064;2023-05-07T07:10:17;4.72;;;4.20;;
14358;SDS011;7263;49.418;11.064;2023-05-07T07:12:44;5.07;;;4.57;;
14358;SDS011;7263;49.418;11.064;2023-05-07T07:15:13;4.68;;;4.20;;
14358;SDS011;7263;49.418;11.064;2023-05-07T07:17:40;4.47;;;4.07;;
14358;SDS011;7263;49.418;11.064;2023-05-07T07:20:09;4.25;;;3.95;;
14358;SDS011;7263;49.418;11.064;2023-05-07T07:22:39;4.93;;;4.53;;
14358;SDS011;7263;49.418;11.064;2023-05-07T07:25:06;4.72;;;4.25;;
14358;SDS011;7263;49.418;11.064;2023-05-07T07:27:33;4.80;;;4.15;;
14358;SDS011;7263;49.418;11.064;2023-05-07T07:30:00;4.18;;;3.80;;
14358;SDS011;7263;49.418;11.064;2023-05-07T07:32:32;4.60;;;4.20;;
14358;SDS011;7263;49.418;11.064;2023-05-07T07:35:00;4.30;;;3.95;;
14358;SDS011;7263;49.418;11.064;2023-05-07T07:37:31;6.43;;;4.38;;
14358;SDS011;7263;49.418;11.064;2023-05-07T07:40:00;4.70;;;4.30;;
14358;SDS011;7263;49.418;11.064;2023-05-07T07:42:31;5.13;;;4.30;;
14358;SDS011;7263;49.418;11.064;2023-05-07T07:44:58;4.40;;;4.00;;
14358;SDS011;7263;49.418;11.064;2023-05-07T07:47:27;4.15;;;3.72;;
14358;SDS011;7263;49.418;11.064;2023-05-07T07:49:56;4.85;;;3.75;;
14358;SDS011;7263;49.418;11.064;2023-05-07T07:52:22;4.47;;;4.07;;
14358;SDS011;7263;49.418;11.064;2023-05-07T07:54:51;4.55;;;3.72;;
14358;SDS011;7263;49.418;11.064;2023-05-07T07:57:17;4.38;;;3.97;;
14358;SDS011;7263;49.418;11.064;2023-05-07T07:59:47;3.85;;;3.55;;
14358;SDS011;7263;49.418;11.064;2023-05-07T08:02:20;5.03;;;3.92;;
14358;SDS011;7263;49.418;11.064;2023-05-07T08:04:54;4.32;;;3.92;;
14358;SDS011;7263;49.418;11.064;2023-05-07T08:07:27;4.53;;;4.20;;
14358;SDS011;7263;49.418;11.064;2023-05-07T08:09:55;4.25;;;3.85;;
14358;SDS011;7263;49.418;11.064;2023-05-07T08:12:22;4.20;;;3.72;;
14358;SDS011;7263;49.418;11.064;2023-05-07T08:14:49;4.78;;;3.92;;
14358;SDS011;7263;49.418;11.064;2023-05-07T08:17:15;3.90;;;3.60;;
14358;SDS011;7263;49.418;11.064;2023-05-07T08:19:47;3.90;;;3.60;;
14358;SDS011;7263;49.418;11.064;2023-05-07T08:22:13;4.78;;;3.70;;
14358;SDS011;7263;49.418;11.064;2023-05-07T08:24:46;4.28;;;3.88;;
14358;SDS011;7263;49.418;11.064;2023-05-07T08:27:18;4.05;;;3.53;;
14358;SDS011;7263;49.418;11.064;2023-05-07T08:29:46;4.43;;;3.33;;
14358;SDS011;7263;49.418;11.064;2023-05-07T08:32:13;4.20;;;3.80;;
14358;SDS011;7263;49.418;11.064;2023-05-07T08:34:42;3.90;;;3.60;;
14358;SDS011;7263;49.418;11.064;2023-05-07T08:37:09;3.78;;;3.45;;
14358;SDS011;7263;49.418;11.064;2023-05-07T08:39:38;4.07;;;3.78;;
14358;SDS011;7263;49.418;11.064;2023-05-07T08:42:11;5.90;;;3.65;;
14358;SDS011;7263;49.418;11.064;2023-05-07T08:44:45;3.75;;;3.45;;
14358;SDS011;7263;49.418;11.064;2023-05-07T08:47:12;4.40;;;2.90;;
14358;SDS011;7263;49.418;11.064;2023-05-07T08:49:42;3.40;;;3.13;;
14358;SDS011;7263;49.418;11.064;2023-05-07T08:52:09;3.88;;;3.45;;
14358;SDS011;7263;49.418;11.064;2023-05-07T08:54:45;3.15;;;2.85;;
14358;SDS011;7263;49.418;11.064;2023-05-07T08:57:12;5.50;;;2.90;;
14358;SDS011;7263;49.418;11.064;2023-05-07T08:59:48;3.20;;;3.00;;
14358;SDS011;7263;49.418;11.064;2023-05-07T09:02:20;3.50;;;3.20;;
14358;SDS011;7263;49.418;11.064;2023-05-07T09:04:48;3.80;;;3.40;;
14358;SDS011;7263;49.418;11.064;2023-05-07T09:07:15;3.88;;;3.50;;
14358;SDS011;7263;49.418;11.064;2023-05-07T09:09:43;3.63;;;3.33;;
14358;SDS011;7263;49.418;11.064;2023-05-07T09:12:10;4.30;;;2.92;;
14358;SDS011;7263;49.418;11.064;2023-05-07T09:14:37;3.45;;;3.15;;
14358;SDS011;7263;49.418;11.064;2023-05-07T09:17:06;3.38;;;3.13;;
14358;SDS011;7263;49.418;11.064;2023-05-07T09:19:36;3.00;;;2.70;;
14358;SDS011;7263;49.418;11.064;2023-05-07T09:22:03;3.00;;;2.80;;
14358;SDS011;7263;49.418;11.064;2023-05-07T09:24:32;4.30;;;2.88;;
14358;SDS011;7263;49.418;11.064;2023-05-07T09:27:01;4.13;;;3.10;;
14358;SDS011;7263;49.418;11.064;2023-05-07T09:29:28;3.75;;;2.80;;
14358;SDS011;7263;49.418;11.064;2023-05-07T09:32:00;2.78;;;2.47;;
14358;SDS011;7263;49.418;11.064;2023-05-07T09:34:29;2.88;;;2.63;;
14358;SDS011;7263;49.418;11.064;2023-05-07T09:37:00;2.97;;;2.78;;
14358;SDS011;7263;49.418;11.064;2023-05-07T09:39:28;2.90;;;2.70;;
14358;SDS011;7263;49.418;11.064;2023-05-07T09:42:14;2.80;;;2.60;;
14358;SDS011;7263;49.418;11.064;2023-05-07T09:44:41;3.95;;;2.60;;
14358;SDS011;7263;49.418;11.064;2023-05-07T09:47:12;3.10;;;2.78;;
14358;SDS011;7263;49.418;11.064;2023-05-07T09:49:46;3.47;;;2.38;;
14358;SDS011;7263;49.418;11.064;2023-05-07T09:52:21;2.53;;;2.33;;
14358;SDS011;7263;49.418;11.064;2023-05-07T09:54:49;2.67;;;2.42;;
14358;SDS011;7263;49.418;11.064;2023-05-07T09:57:20;4.65;;;2.30;;
14358;SDS011;7263;49.418;11.064;2023-05-07T09:59:49;2.85;;;2.30;;
14358;SDS011;7263;49.418;11.064;2023-05-07T10:02:25;3.05;;;2.30;;
14358;SDS011;7263;49.418;11.064;2023-05-07T10:04:56;2.50;;;2.13;;
14358;SDS011;7263;49.418;11.064;2023-05-07T10:07:27;2.60;;;2.40;;
14358;SDS011;7263;49.418;11.064;2023-05-07T10:09:55;2.38;;;2.15;;
14358;SDS011;7263;49.418;11.064;2023-05-07T10:12:25;2.50;;;2.30;;
14358;SDS011;7263;49.418;11.064;2023-05-07T10:15:02;3.45;;;2.47;;
14358;SDS011;7263;49.418;11.064;2023-05-07T10:17:35;2.45;;;2.25;;
14358;SDS011;7263;49.418;11.064;2023-05-07T10:20:05;2.70;;;2.50;;
14358;SDS011;7263;49.418;11.064;2023-05-07T10:22:41;5.88;;;2.20;;
14358;SDS011;7263;49.418;11.064;2023-05-07T10:25:14;2.58;;;1.95;;
14358;SDS011;7263;49.418;11.064;2023-05-07T10:27:45;2.10;;;2.00;;
14358;SDS011;7263;49.418;11.064;2023-05-07T10:30:15;2.28;;;2.08;;
14358;SDS011;7263;49.418;11.064;2023-05-07T10:32:53;2.78;;;2.22;;
14358;SDS011;7263;49.418;11.064;2023-05-07T10:35:25;2.22;;;1.95;;
14358;SDS011;7263;49.418;11.064;2023-05-07T10:37:57;3.25;;;2.33;;
14358;SDS011;7263;49.418;11.064;2023-05-07T10:40:27;3.08;;;2.40;;
14358;SDS011;7263;49.418;11.064;2023-05-07T10:42:55;2.63;;;2.42;;
14358;SDS011;7263;49.418;11.064;2023-05-07T10:45:26;2.40;;;2.20;;
14358;SDS011;7263;49.418;11.064;2023-05-07T10:48:06;2.53;;;2.00;;
14358;SDS011;7263;49.418;11.064;2023-05-07T10:50:44;3.15;;;2.20;;
14358;SDS011;7263;49.418;11.064;2023-05-07T11:02:08;1.70;;;1.50;;
14358;SDS011;7263;49.418;11.064;2023-05-07T11:04:40;3.25;;;2.00;;
14358;SDS011;7263;49.418;11.064;2023-05-07T11:07:26;2.30;;;2.10;;
14358;SDS011;7263;49.418;11.064;2023-05-07T11:10:03;1.92;;;1.60;;
14358;SDS011;7263;49.418;11.064;2023-05-07T11:15:36;2.92;;;2.22;;
14358;SDS011;7263;49.418;11.064;2023-05-07T11:18:09;3.60;;;2.00;;
14358;SDS011;7263;49.418;11.064;2023-05-07T11:21:02;3.20;;;2.45;;
14358;SDS011;7263;49.418;11.064;2023-05-07T11:26:47;1.92;;;1.83;;
14358;SDS011;7263;49.418;11.064;2023-05-07T11:29:18;2.30;;;2.10;;
14358;SDS011;7263;49.418;11.064;2023-05-07T11:31:48;3.63;;;3.30;;
14358;SDS011;7263;49.418;11.064;2023-05-07T11:34:20;4.82;;;3.22;;
14358;SDS011;7263;49.418;11.064;2023-05-07T11:36:52;3.70;;;3.40;;
14358;SDS011;7263;49.418;11.064;2023-05-07T11:39:23;6.53;;;5.85;;
14358;SDS011;7263;49.418;11.064;2023-05-07T11:41:57;4.90;;;4.18;;
14358;SDS011;7263;49.418;11.064;2023-05-07T11:44:25;4.40;;;2.47;;
14358;SDS011;7263;49.418;11.064;2023-05-07T11:47:10;3.05;;;2.47;;
14358;SDS011;7263;49.418;11.064;2023-05-07T11:49:37;2.67;;;2.47;;
14358;SDS011;7263;49.418;11.064;2023-05-07T11:52:06;3.92;;;2.47;;
14358;SDS011;7263;49.418;11.064;2023-05-07T11:54:36;2.95;;;2.10;;
14358;SDS011;7263;49.418;11.064;2023-05-07T11:57:07;3.45;;;2.53;;
14358;SDS011;7263;49.418;11.064;2023-05-07T11:59:43;3.63;;;2.25;;
14358;SDS011;7263;49.418;11.064;2023-05-07T12:02:13;2.78;;;2.50;;
14358;SDS011;7263;49.418;11.064;2023-05-07T12:04:44;2.90;;;2.35;;
14358;SDS011;7263;49.418;11.064;2023-05-07T12:07:11;2.50;;;2.30;;
14358;SDS011;7263;49.418;11.064;2023-05-07T12:09:38;4.15;;;2.55;;
14358;SDS011;7263;49.418;11.064;2023-05-07T12:12:10;3.15;;;2.65;;
14358;SDS011;7263;49.418;11.064;2023-05-07T12:14:46;2.88;;;2.33;;
14358;SDS011;7263;49.418;11.064;2023-05-07T12:17:13;2.65;;;2.45;;
14358;SDS011;7263;49.418;11.064;2023-05-07T12:19:41;2.70;;;2.50;;
14358;SDS011;7263;49.418;11.064;2023-05-07T12:22:18;3.95;;;2.20;;
14358;SDS011;7263;49.418;11.064;2023-05-07T12:24:46;2.63;;;2.42;;
14358;SDS011;7263;49.418;11.064;2023-05-07T12:27:15;2.53;;;2.13;;
14358;SDS011;7263;49.418;11.064;2023-05-07T12:29:43;2.72;;;2.20;;
14358;SDS011;7263;49.418;11.064;2023-05-07T12:32:12;2.63;;;2.22;;
14358;SDS011;7263;49.418;11.064;2023-05-07T12:34:41;3.20;;;1.95;;
14358;SDS011;7263;49.418;11.064;2023-05-07T12:37:08;2.20;;;2.00;;
14358;SDS011;7263;49.418;11.064;2023-05-07T12:39:44;1.92;;;1.83;;
14358;SDS011;7263;49.418;11.064;2023-05-07T12:42:15;2.38;;;2.17;;
14358;SDS011;7263;49.418;11.064;2023-05-07T12:44:46;3.58;;;2.08;;
14358;SDS011;7263;49.418;11.064;2023-05-07T12:47:18;2.92;;;2.47;;
14358;SDS011;7263;49.418;11.064;2023-05-07T12:49:50;2.40;;;2.20;;
14358;SDS011;7263;49.418;11.064;2023-05-07T12:52:20;3.22;;;2.22;;
14358;SDS011;7263;49.418;11.064;2023-05-07T12:54:46;4.47;;;2.38;;
14358;SDS011;7263;49.418;11.064;2023-05-07T12:57:15;3.17;;;2.33;;
14358;SDS011;7263;49.418;11.064;2023-05-07T12:59:46;3.45;;;2.83;;
14358;SDS011;7263;49.418;11.064;2023-05-07T13:02:13;4.30;;;2.30;;
14358;SDS011;7263;49.418;11.064;2023-05-07T13:04:41;3.20;;;2.90;;
14358;SDS011;7263;49.418;11.064;2023-05-07T13:07:08;3.17;;;2.33;;
14358;SDS011;7263;49.418;11.064;2023-05-07T13:09:36;2.83;;;2.60;;
14358;SDS011;7263;49.418;11.064;2023-05-07T13:12:03;2.83;;;2.22;;
14358;SDS011;7263;49.418;11.064;2023-05-07T13:14:32;3.17;;;2.83;;
14358;SDS011;7263;49.418;11.064;2023-05-07T13:16:59;2.20;;;2.00;;
14358;SDS011;7263;49.418;11.064;2023-05-07T13:19:26;3.75;;;3.08;;
14358;SDS011;7263;49.418;11.064;2023-05-07T13:21:52;5.20;;;3.45;;
14358;SDS011;7263;49.418;11.064;2023-05-07T13:24:19;2.70;;;2.30;;
14358;SDS011;7263;49.418;11.064;2023-05-07T13:26:46;3.70;;;2.90;;
14358;SDS011;7263;49.418;11.064;2023-05-07T13:29:16;4.50;;;3.67;;
14358;SDS011;7263;49.418;11.064;2023-05-07T13:31:44;2.20;;;2.00;;
14358;SDS011;7263;49.418;11.064;2023-05-07T13:34:16;3.38;;;2.47;;
14358;SDS011;7263;49.418;11.064;2023-05-07T13:36:46;2.70;;;2.30;;
14358;SDS011;7263;49.418;11.064;2023-05-07T13:39:13;4.45;;;4.13;;
14358;SDS011;7263;49.418;11.064;2023-05-07T13:41:40;2.78;;;2.50;;
14358;SDS011;7263;49.418;11.064;2023-05-07T13:44:07;3.42;;;2.75;;
14358;SDS011;7263;49.418;11.064;2023-05-07T13:46:37;2.53;;;2.33;;
14358;SDS011;7263;49.418;11.064;2023-05-07T13:49:05;2.97;;;2.67;;
14358;SDS011;7263;49.418;11.064;2023-05-07T13:51:39;4.80;;;4.40;;
14358;SDS011;7263;49.418;11.064;2023-05-07T13:54:08;3.25;;;2.15;;
14358;SDS011;7263;49.418;11.064;2023-05-07T13:56:37;3.33;;;3.03;;
14358;SDS011;7263;49.418;11.064;2023-05-07T13:59:15;3.80;;;3.50;;
14358;SDS011;7263;49.418;11.064;2023-05-07T14:01:48;4.07;;;2.30;;
14358;SDS011;7263;49.418;11.064;2023-05-07T14:04:23;7.15;;;6.47;;
14358;SDS011;7263;49.418;11.064;2023-05-07T14:06:55;10.73;;;9.73;;
14358;SDS011;7263;49.418;11.064;2023-05-07T14:09:27;5.90;;;5.40;;
14358;SDS011;7263;49.418;11.064;2023-05-07T14:11:54;3.05;;;2.83;;
14358;SDS011;7263;49.418;11.064;2023-05-07T14:14:21;2.55;;;2.35;;
14358;SDS011;7263;49.418;11.064;2023-05-07T14:17:03;2.92;;;2.33;;
14358;SDS011;7263;49.418;11.064;2023-05-07T14:19:34;2.92;;;2.55;;
14358;SDS011;7263;49.418;11.064;2023-05-07T14:22:03;8.25;;;7.18;;
14358;SDS011;7263;49.418;11.064;2023-05-07T14:24:29;5.97;;;5.40;;
14358;SDS011;7263;49.418;11.064;2023-05-07T14:27:02;8.13;;;7.40;;
14358;SDS011;7263;49.418;11.064;2023-05-07T14:29:29;6.68;;;5.88;;
14358;SDS011;7263;49.418;11.064;2023-05-07T14:32:03;2.78;;;2.38;;
14358;SDS011;7263;49.418;11.064;2023-05-07T14:34:36;4.50;;;3.00;;
14358;SDS011;7263;49.418;11.064;2023-05-07T14:37:17;3.38;;;3.03;;
14358;SDS011;7263;49.418;11.064;2023-05-07T14:39:49;5.57;;;3.85;;
14358;SDS011;7263;49.418;11.064;2023-05-07T14:42:16;3.40;;;3.10;;
14358;SDS011;7263;49.418;11.064;2023-05-07T14:44:43;2.80;;;2.60;;
14358;SDS011;7263;49.418;11.064;2023-05-07T14:47:10;3.17;;;2.97;;
14358;SDS011;7263;49.418;11.064;2023-05-07T14:49:44;2.95;;;2.75;;
14358;SDS011;7263;49.418;11.064;2023-05-07T14:52:10;3.70;;;3.40;;
14358;SDS011;7263;49.418;11.064;2023-05-07T14:54:39;3.50;;;3.00;;
14358;SDS011;7263;49.418;11.064;2023-05-07T14:57:09;3.63;;;3.00;;
14358;SDS011;7263;49.418;11.064;2023-05-07T14:59:38;5.30;;;3.08;;
14358;SDS011;7263;49.418;11.064;2023-05-07T15:02:21;3.17;;;2.88;;
14358;SDS011;7263;49.418;11.064;2023-05-07T15:04:51;3.33;;;3.03;;
14358;SDS011;7263;49.418;11.064;2023-05-07T15:07:26;3.58;;;2.75;;
14358;SDS011;7263;49.418;11.064;2023-05-07T15:09:53;4.60;;;4.20;;
14358;SDS011;7263;49.418;11.064;2023-05-07T15:12:24;4.47;;;4.07;;
14358;SDS011;7263;49.418;11.064;2023-05-07T15:14:51;3.33;;;3.03;;
14358;SDS011;7263;49.418;11.064;2023-05-07T15:17:18;2.95;;;2.75;;
14358;SDS011;7263;49.418;11.064;2023-05-07T15:19:45;3.45;;;3.15;;
14358;SDS011;7263;49.418;11.064;2023-05-07T15:22:27;4.00;;;2.80;;